Time;durP1;ratioP1;P1;durP2;ratioP2;P2;SDS_P1;SDS_P2;PMS_P1;PMS_P2;Temp;Humidity;BMP_temperature;BMP_pressure;BME280_temperature;BME280_humidity;BME280_pressure;Samples;Min_cycle;Max_cycle;Signal;HPM_P1;HPM_P2
2023/12/07 00:02:22;;;;;;;874.53;101.78;;;;;;;;;;4898907;28;20054;-82
2023/12/07 00:04:50;;;;;;;1042.28;124.13;;;;;;;;;;4865600;28;20053;-82
2023/12/07 00:07:16;;;;;;;939.25;109.25;;;;;;;;;;4880075;28;20038;-81
2023/12/07 00:09:43;;;;;;;930.28;108.93;;;;;;;;;;4869117;28;20046;-82
2023/12/07 00:12:09;;;;;;;893.75;105.57;;;;;;;;;;4895507;28;21074;-82
2023/12/07 00:14:36;;;;;;;859.50;101.18;;;;;;;;;;4903495;28;20046;-82
2023/12/07 00:17:03;;;;;;;855.40;98.82;;;;;;;;;;4899050;28;20042;-82
2023/12/07 00:19:29;;;;;;;874.47;103.13;;;;;;;;;;4898883;28;20038;-81
2023/12/07 00:21:56;;;;;;;878.40;99.85;;;;;;;;;;4894138;28;20038;-82
2023/12/07 00:24:23;;;;;;;870.83;99.65;;;;;;;;;;4896891;28;20068;-82
2023/12/07 00:26:50;;;;;;;894.00;104.50;;;;;;;;;;4895214;28;20034;-82
2023/12/07 00:29:16;;;;;;;867.60;102.45;;;;;;;;;;4896682;28;20661;-81
2023/12/07 00:31:43;;;;;;;883.42;102.63;;;;;;;;;;4899214;28;20034;-82
2023/12/07 00:34:10;;;;;;;896.90;103.43;;;;;;;;;;4896917;28;20059;-81
2023/12/07 00:36:38;;;;;;;868.92;100.10;;;;;;;;;;4898485;28;21120;-82
2023/12/07 00:39:06;;;;;;;890.03;105.40;;;;;;;;;;4898955;28;20963;-82
2023/12/07 00:41:32;;;;;;;902.25;103.03;;;;;;;;;;4898137;28;21249;-82
2023/12/07 00:43:59;;;;;;;888.67;103.57;;;;;;;;;;4897502;28;20045;-82
2023/12/07 00:46:26;;;;;;;871.15;101.15;;;;;;;;;;4876698;28;21116;-82
2023/12/07 00:48:52;;;;;;;956.40;111.45;;;;;;;;;;4896701;28;20041;-82
2023/12/07 00:51:19;;;;;;;845.83;97.60;;;;;;;;;;4900627;28;20097;-82
2023/12/07 00:53:46;;;;;;;866.90;100.22;;;;;;;;;;4896857;28;20188;-82
2023/12/07 00:56:12;;;;;;;934.70;108.50;;;;;;;;;;4896821;28;20056;-82
2023/12/07 00:58:39;;;;;;;854.58;101.70;;;;;;;;;;4897566;28;20034;-82
2023/12/07 01:01:06;;;;;;;889.85;103.50;;;;;;;;;;4892864;28;20041;-82
2023/12/07 01:03:32;;;;;;;886.55;102.65;;;;;;;;;;4898308;28;20581;-82
2023/12/07 01:05:59;;;;;;;873.45;101.72;;;;;;;;;;4897154;28;20033;-82
2023/12/07 01:08:25;;;;;;;861.28;98.32;;;;;;;;;;4902012;28;20042;-82
2023/12/07 01:10:52;;;;;;;928.33;105.88;;;;;;;;;;4900466;28;20038;-82
2023/12/07 01:13:19;;;;;;;886.47;102.80;;;;;;;;;;4903347;28;20836;-82
2023/12/07 01:15:45;;;;;;;919.58;106.75;;;;;;;;;;4905593;28;20042;-82
2023/12/07 01:18:12;;;;;;;875.40;102.03;;;;;;;;;;4885466;28;20201;-82
2023/12/07 01:20:38;;;;;;;840.70;97.68;;;;;;;;;;4901190;28;20135;-82
2023/12/07 01:23:05;;;;;;;856.33;99.82;;;;;;;;;;4901621;28;20462;-82
2023/12/07 01:25:31;;;;;;;894.20;102.68;;;;;;;;;;4905324;28;21243;-82
2023/12/07 01:27:58;;;;;;;846.72;96.45;;;;;;;;;;4884328;28;20037;-81
2023/12/07 01:30:25;;;;;;;859.25;98.88;;;;;;;;;;4903549;28;20053;-82
2023/12/07 01:32:52;;;;;;;911.30;105.43;;;;;;;;;;4898132;28;20131;-82
2023/12/07 01:35:19;;;;;;;845.10;96.40;;;;;;;;;;4895581;28;20057;-82
2023/12/07 01:37:46;;;;;;;854.35;96.85;;;;;;;;;;4898692;28;20038;-82
2023/12/07 01:40:14;;;;;;;908.50;106.25;;;;;;;;;;4896946;28;20042;-82
2023/12/07 01:42:48;;;;;;;923.92;109.50;;;;;;;;;;4896669;28;20987;-82
2023/12/07 01:45:15;;;;;;;852.45;100.57;;;;;;;;;;4896231;28;20054;-82
2023/12/07 01:47:42;;;;;;;854.22;97.65;;;;;;;;;;4899835;28;20505;-82
2023/12/07 01:50:10;;;;;;;899.70;103.20;;;;;;;;;;4897066;28;21075;-82
2023/12/07 01:52:38;;;;;;;848.90;97.80;;;;;;;;;;4899271;28;20061;-82
2023/12/07 01:55:06;;;;;;;867.67;100.75;;;;;;;;;;4897319;28;20957;-82
2023/12/07 01:57:33;;;;;;;929.05;107.00;;;;;;;;;;4899031;28;20918;-83
2023/12/07 02:00:00;;;;;;;875.22;101.57;;;;;;;;;;4899855;28;20053;-82
2023/12/07 02:02:30;;;;;;;589.15;63.58;;;;;;;;;;5125627;22;20154;-89
2023/12/07 02:04:59;;;;;;;612.03;69.50;;;;;;;;;;4970211;28;20043;-89
2023/12/07 02:07:27;;;;;;;595.58;65.85;;;;;;;;;;4970204;28;20052;-89
2023/12/07 02:09:54;;;;;;;648.75;72.80;;;;;;;;;;4973149;28;20213;-89
2023/12/07 02:12:21;;;;;;;671.50;75.07;;;;;;;;;;4970746;28;20048;-88
2023/12/07 02:14:48;;;;;;;693.78;76.32;;;;;;;;;;4944962;28;20495;-89
2023/12/07 02:17:21;;;;;;;701.42;82.65;;;;;;;;;;4965225;28;20978;-89
2023/12/07 02:20:01;;;;;;;723.90;81.90;;;;;;;;;;4945136;28;20049;-89
2023/12/07 02:22:30;;;;;;;651.28;72.30;;;;;;;;;;4967846;28;20060;-89
2023/12/07 02:25:04;;;;;;;691.67;78.15;;;;;;;;;;4966711;28;20134;-89
2023/12/07 02:27:37;;;;;;;619.47;68.45;;;;;;;;;;4964606;28;20044;-88
2023/12/07 02:30:04;;;;;;;659.75;71.47;;;;;;;;;;4961170;28;20071;-89
2023/12/07 02:32:31;;;;;;;678.05;76.90;;;;;;;;;;4961983;28;20044;-88
2023/12/07 02:34:58;;;;;;;695.88;79.03;;;;;;;;;;4957550;28;20025;-88
2023/12/07 02:37:27;;;;;;;706.83;82.18;;;;;;;;;;4958454;28;20057;-88
2023/12/07 02:39:55;;;;;;;638.25;72.32;;;;;;;;;;4962537;28;20721;-89
2023/12/07 02:42:23;;;;;;;687.90;75.03;;;;;;;;;;4966617;28;20143;-89
2023/12/07 02:44:52;;;;;;;677.70;75.88;;;;;;;;;;4965112;28;20040;-89
2023/12/07 02:47:19;;;;;;;687.78;78.15;;;;;;;;;;4963251;28;20109;-88
2023/12/07 02:49:46;;;;;;;733.53;83.43;;;;;;;;;;4954623;28;21178;-88
2023/12/07 02:52:12;;;;;;;702.75;81.55;;;;;;;;;;4962478;28;20144;-88
2023/12/07 02:54:39;;;;;;;676.75;75.47;;;;;;;;;;4958639;28;20064;-88
2023/12/07 02:57:06;;;;;;;635.38;70.63;;;;;;;;;;4952924;28;20115;-88
2023/12/07 02:59:32;;;;;;;670.97;73.60;;;;;;;;;;4962813;28;20045;-88
2023/12/07 03:01:59;;;;;;;633.00;71.40;;;;;;;;;;4947222;28;20168;-89
2023/12/07 03:04:26;;;;;;;649.60;70.55;;;;;;;;;;4947672;28;20819;-88
2023/12/07 03:06:52;;;;;;;715.90;77.03;;;;;;;;;;4945607;28;20045;-88
2023/12/07 03:09:19;;;;;;;697.25;77.82;;;;;;;;;;4941377;28;20072;-88
2023/12/07 03:11:45;;;;;;;640.70;68.75;;;;;;;;;;4950322;28;20148;-88
2023/12/07 03:14:12;;;;;;;643.75;70.60;;;;;;;;;;4946612;28;20072;-88
2023/12/07 03:16:39;;;;;;;721.83;80.28;;;;;;;;;;4947770;28;21045;-89
2023/12/07 03:19:05;;;;;;;705.10;77.35;;;;;;;;;;4955415;28;20037;-88
2023/12/07 03:21:32;;;;;;;739.75;82.97;;;;;;;;;;4954995;28;20048;-89
2023/12/07 03:23:59;;;;;;;753.28;83.13;;;;;;;;;;4953065;28;20572;-88
2023/12/07 03:26:26;;;;;;;717.33;81.45;;;;;;;;;;4933577;28;20110;-88
2023/12/07 03:28:53;;;;;;;720.08;80.07;;;;;;;;;;4940027;28;21008;-88
2023/12/07 03:31:20;;;;;;;588.80;67.05;;;;;;;;;;4944760;28;20052;-88
2023/12/07 03:33:46;;;;;;;588.78;65.78;;;;;;;;;;4957827;28;21056;-88
2023/12/07 03:36:13;;;;;;;550.25;59.80;;;;;;;;;;4965655;28;20195;-88
2023/12/07 03:38:40;;;;;;;523.25;56.28;;;;;;;;;;4963713;28;20123;-88
2023/12/07 03:41:06;;;;;;;507.80;57.28;;;;;;;;;;4963782;28;20042;-88
2023/12/07 03:43:33;;;;;;;573.20;61.75;;;;;;;;;;4960263;28;20038;-88
2023/12/07 03:46:03;;;;;;;725.78;79.57;;;;;;;;;;4936601;28;20306;-89
2023/12/07 03:48:30;;;;;;;720.50;79.20;;;;;;;;;;4942784;28;20068;-88
2023/12/07 03:50:56;;;;;;;744.65;80.72;;;;;;;;;;4936053;28;20660;-88
2023/12/07 03:53:23;;;;;;;713.67;79.32;;;;;;;;;;4935677;28;20057;-88
2023/12/07 03:55:50;;;;;;;711.78;79.50;;;;;;;;;;4943313;28;20642;-88
2023/12/07 03:58:17;;;;;;;700.40;76.70;;;;;;;;;;4947740;28;20042;-89
2023/12/07 04:00:44;;;;;;;647.70;71.75;;;;;;;;;;4943576;28;20029;-89
2023/12/07 04:03:10;;;;;;;650.80;71.97;;;;;;;;;;4983503;28;20147;-88
2023/12/07 04:05:37;;;;;;;751.55;81.93;;;;;;;;;;4961477;28;20052;-88
2023/12/07 04:08:05;;;;;;;736.55;82.72;;;;;;;;;;4952424;28;20056;-88
2023/12/07 04:10:31;;;;;;;715.40;78.35;;;;;;;;;;4938720;28;20140;-88
2023/12/07 04:12:58;;;;;;;718.63;81.28;;;;;;;;;;4957806;28;20044;-88
2023/12/07 04:15:25;;;;;;;703.63;77.00;;;;;;;;;;4960929;28;20233;-88
2023/12/07 04:17:52;;;;;;;650.55;73.50;;;;;;;;;;4969340;28;20045;-89
2023/12/07 04:20:19;;;;;;;619.72;68.60;;;;;;;;;;4973970;28;20049;-88
2023/12/07 04:22:46;;;;;;;685.70;78.07;;;;;;;;;;4973056;28;20029;-89
2023/12/07 04:25:13;;;;;;;684.90;73.82;;;;;;;;;;4969023;28;20025;-88
2023/12/07 04:27:40;;;;;;;658.70;74.05;;;;;;;;;;4975257;28;20040;-88
2023/12/07 04:30:07;;;;;;;668.28;73.20;;;;;;;;;;4970354;28;20215;-89
2023/12/07 04:32:33;;;;;;;588.28;64.25;;;;;;;;;;4959074;28;20048;-88
2023/12/07 04:35:00;;;;;;;568.83;60.42;;;;;;;;;;4981119;28;20052;-88
2023/12/07 04:37:27;;;;;;;579.83;62.95;;;;;;;;;;4976405;28;20952;-89
2023/12/07 04:39:53;;;;;;;582.58;63.80;;;;;;;;;;4969822;28;20037;-89
2023/12/07 04:42:20;;;;;;;634.17;67.93;;;;;;;;;;4981954;28;20103;-88
2023/12/07 04:44:48;;;;;;;544.85;59.67;;;;;;;;;;4970705;28;20044;-89
2023/12/07 04:47:14;;;;;;;681.75;74.55;;;;;;;;;;4964597;28;20091;-88
2023/12/07 04:49:41;;;;;;;676.13;73.13;;;;;;;;;;4949989;28;21061;-88
2023/12/07 04:52:08;;;;;;;707.63;76.00;;;;;;;;;;4964905;28;21017;-88
2023/12/07 04:54:34;;;;;;;724.25;76.95;;;;;;;;;;4962755;28;20041;-90
2023/12/07 04:57:01;;;;;;;687.10;74.22;;;;;;;;;;4956426;28;20041;-89
2023/12/07 04:59:28;;;;;;;770.63;84.38;;;;;;;;;;4938255;28;20099;-88
2023/12/07 05:01:54;;;;;;;707.90;76.03;;;;;;;;;;4952926;28;20052;-88
2023/12/07 05:04:21;;;;;;;676.08;72.13;;;;;;;;;;4959078;28;20978;-88
2023/12/07 05:06:48;;;;;;;716.35;78.05;;;;;;;;;;4961307;28;20904;-88
2023/12/07 05:09:15;;;;;;;666.95;71.95;;;;;;;;;;4965656;28;20033;-88
2023/12/07 05:11:42;;;;;;;681.80;74.38;;;;;;;;;;4959199;28;20203;-88
2023/12/07 05:14:08;;;;;;;698.35;74.95;;;;;;;;;;4959396;28;20037;-88
2023/12/07 05:16:35;;;;;;;707.97;76.47;;;;;;;;;;4950428;28;21149;-88
2023/12/07 05:19:02;;;;;;;712.42;75.78;;;;;;;;;;4937600;28;20942;-88
2023/12/07 05:21:29;;;;;;;745.42;81.25;;;;;;;;;;4954963;28;20045;-88
2023/12/07 05:23:55;;;;;;;705.55;77.28;;;;;;;;;;4938695;28;20052;-88
2023/12/07 05:26:22;;;;;;;727.50;78.80;;;;;;;;;;4953423;28;21095;-89
2023/12/07 05:28:49;;;;;;;655.97;70.55;;;;;;;;;;4963087;28;20104;-88
2023/12/07 05:31:19;;;;;;;667.38;71.22;;;;;;;;;;4964463;28;20045;-89
2023/12/07 05:33:46;;;;;;;666.42;72.32;;;;;;;;;;4964521;28;20051;-88
2023/12/07 05:36:13;;;;;;;579.08;60.45;;;;;;;;;;4971022;28;20116;-89
2023/12/07 05:38:39;;;;;;;683.67;73.90;;;;;;;;;;4959020;28;20037;-88
2023/12/07 05:41:06;;;;;;;654.90;71.97;;;;;;;;;;4960649;28;20144;-88
2023/12/07 05:43:33;;;;;;;704.85;78.38;;;;;;;;;;4950162;28;20041;-87
2023/12/07 05:46:00;;;;;;;752.80;86.82;;;;;;;;;;4945750;28;20833;-87
2023/12/07 05:48:27;;;;;;;719.90;81.43;;;;;;;;;;4945261;28;20041;-88
2023/12/07 05:50:54;;;;;;;751.47;84.15;;;;;;;;;;4950365;28;20048;-88
2023/12/07 05:53:20;;;;;;;768.97;88.10;;;;;;;;;;4943157;28;20037;-88
2023/12/07 05:55:47;;;;;;;733.65;83.53;;;;;;;;;;4947265;28;20145;-88
2023/12/07 05:58:13;;;;;;;755.65;87.45;;;;;;;;;;4949231;28;20477;-88
2023/12/07 06:00:43;;;;;;;805.55;93.00;;;;;;;;;;4950497;28;20175;-89
2023/12/07 06:03:10;;;;;;;729.05;81.75;;;;;;;;;;4951878;28;20844;-88
2023/12/07 06:05:37;;;;;;;807.20;91.93;;;;;;;;;;4944265;28;21274;-88
2023/12/07 06:08:04;;;;;;;754.10;84.10;;;;;;;;;;4943304;28;20039;-88
2023/12/07 06:10:30;;;;;;;756.80;83.75;;;;;;;;;;4942636;28;20041;-88
2023/12/07 06:13:00;;;;;;;789.25;88.35;;;;;;;;;;4936836;28;20052;-87
2023/12/07 06:15:27;;;;;;;755.25;83.57;;;;;;;;;;4930563;28;20913;-87
2023/12/07 06:17:54;;;;;;;750.20;82.32;;;;;;;;;;4946697;28;20092;-88
2023/12/07 06:20:21;;;;;;;659.95;72.00;;;;;;;;;;4933255;28;20806;-88
2023/12/07 06:22:47;;;;;;;729.00;80.82;;;;;;;;;;4950312;28;20128;-88
2023/12/07 06:25:14;;;;;;;759.35;82.70;;;;;;;;;;4951570;28;20190;-88
2023/12/07 06:27:41;;;;;;;757.70;83.72;;;;;;;;;;4950996;28;20052;-88
2023/12/07 06:30:08;;;;;;;733.88;83.38;;;;;;;;;;4949815;28;20041;-87
2023/12/07 06:32:35;;;;;;;687.28;75.43;;;;;;;;;;4954911;28;20202;-88
2023/12/07 06:35:04;;;;;;;727.30;81.50;;;;;;;;;;4938252;28;20041;-88
2023/12/07 06:37:31;;;;;;;758.35;84.75;;;;;;;;;;4948581;28;20046;-88
2023/12/07 06:39:58;;;;;;;774.83;86.40;;;;;;;;;;4938294;28;20794;-88
2023/12/07 06:42:26;;;;;;;625.45;67.40;;;;;;;;;;4958852;28;20169;-88
2023/12/07 06:44:53;;;;;;;749.30;83.30;;;;;;;;;;4956828;28;20960;-88
2023/12/07 06:47:20;;;;;;;727.90;80.22;;;;;;;;;;4952803;28;20096;-88
2023/12/07 06:49:47;;;;;;;763.15;85.70;;;;;;;;;;4949581;28;20044;-88
2023/12/07 06:52:18;;;;;;;788.13;88.80;;;;;;;;;;4932453;28;20123;-88
2023/12/07 06:54:45;;;;;;;799.45;90.18;;;;;;;;;;4948336;28;20033;-88
2023/12/07 06:57:12;;;;;;;798.65;88.18;;;;;;;;;;4947571;28;20118;-88
2023/12/07 06:59:40;;;;;;;817.33;92.55;;;;;;;;;;4941340;28;20991;-87
2023/12/07 07:02:07;;;;;;;843.28;98.30;;;;;;;;;;4938040;28;20179;-88
2023/12/07 07:04:34;;;;;;;803.30;99.47;;;;;;;;;;4940796;28;20048;-87
2023/12/07 07:07:00;;;;;;;894.95;112.43;;;;;;;;;;4945160;28;20101;-88
2023/12/07 07:09:27;;;;;;;804.60;107.13;;;;;;;;;;4948189;28;20033;-87
2023/12/07 07:11:54;;;;;;;700.38;83.18;;;;;;;;;;4948532;28;20045;-87
2023/12/07 07:14:23;;;;;;;704.58;81.57;;;;;;;;;;4954259;28;20041;-88
2023/12/07 07:16:50;;;;;;;788.50;90.72;;;;;;;;;;4953655;28;21267;-88
2023/12/07 07:19:17;;;;;;;743.25;83.53;;;;;;;;;;4951219;28;20860;-88
2023/12/07 07:21:44;;;;;;;817.05;91.45;;;;;;;;;;4939707;28;20891;-88
2023/12/07 07:24:10;;;;;;;703.15;79.65;;;;;;;;;;4952259;28;20118;-87
2023/12/07 07:26:38;;;;;;;678.55;76.50;;;;;;;;;;4961530;28;21053;-88
2023/12/07 07:29:06;;;;;;;700.95;80.88;;;;;;;;;;4962375;28;20892;-88
2023/12/07 07:31:33;;;;;;;506.17;62.22;;;;;;;;;;4964092;28;20041;-89
2023/12/07 07:33:59;;;;;;;733.10;86.18;;;;;;;;;;4933603;28;20748;-88
2023/12/07 07:36:27;;;;;;;242.85;42.05;;;;;;;;;;4977894;28;20033;-88
2023/12/07 07:38:54;;;;;;;115.30;33.10;;;;;;;;;;5033360;28;20461;-88
2023/12/07 07:41:21;;;;;;;145.77;33.45;;;;;;;;;;5042058;28;20443;-88
2023/12/07 07:43:48;;;;;;;683.00;81.55;;;;;;;;;;4922424;28;20030;-89
2023/12/07 07:46:15;;;;;;;667.17;76.60;;;;;;;;;;4952098;28;20040;-88
2023/12/07 07:48:41;;;;;;;734.40;85.68;;;;;;;;;;4956097;28;20471;-88
2023/12/07 07:51:08;;;;;;;860.78;98.65;;;;;;;;;;4958624;28;20056;-88
2023/12/07 07:53:35;;;;;;;426.20;54.75;;;;;;;;;;4963583;28;20041;-88
2023/12/07 07:56:02;;;;;;;311.92;40.55;;;;;;;;;;5009413;28;20199;-87
2023/12/07 07:58:28;;;;;;;245.32;38.80;;;;;;;;;;5027386;28;20924;-87
2023/12/07 08:00:55;;;;;;;145.07;27.50;;;;;;;;;;5051113;28;20029;-88
2023/12/07 08:03:22;;;;;;;99.43;24.77;;;;;;;;;;5054209;28;20064;-88
2023/12/07 08:05:49;;;;;;;74.93;23.23;;;;;;;;;;5052693;28;20051;-87
2023/12/07 08:08:15;;;;;;;124.90;24.42;;;;;;;;;;5052492;28;20028;-87
2023/12/07 08:10:42;;;;;;;118.72;26.27;;;;;;;;;;5036770;28;20040;-88
2023/12/07 08:13:21;;;;;;;104.60;25.17;;;;;;;;;;5036525;28;20041;-88
2023/12/07 08:15:48;;;;;;;176.48;32.75;;;;;;;;;;5021450;28;20037;-86
2023/12/07 08:18:17;;;;;;;71.57;23.15;;;;;;;;;;5053009;28;20480;-86
2023/12/07 08:20:43;;;;;;;69.65;22.90;;;;;;;;;;5046250;28;20514;-86
2023/12/07 08:23:10;;;;;;;259.98;35.53;;;;;;;;;;5028787;28;20029;-92
2023/12/07 08:25:40;;;;;;;93.55;23.55;;;;;;;;;;5072879;28;20051;-83
2023/12/07 08:28:09;;;;;;;82.05;20.83;;;;;;;;;;5059553;28;20037;-85
2023/12/07 08:30:36;;;;;;;46.55;20.70;;;;;;;;;;5051945;28;20498;-86
2023/12/07 08:33:03;;;;;;;75.13;22.70;;;;;;;;;;5051854;28;20061;-86
2023/12/07 08:35:30;;;;;;;84.93;20.75;;;;;;;;;;5035528;28;20059;-86
2023/12/07 08:37:57;;;;;;;60.13;17.70;;;;;;;;;;5033499;28;20100;-88
2023/12/07 08:40:24;;;;;;;56.40;19.05;;;;;;;;;;5017025;28;20129;-89
2023/12/07 08:42:50;;;;;;;171.80;26.65;;;;;;;;;;5028179;28;20498;-87
2023/12/07 08:45:18;;;;;;;143.52;26.90;;;;;;;;;;5035699;28;20041;-90
2023/12/07 08:47:50;;;;;;;49.47;19.05;;;;;;;;;;5036075;28;20368;-86
2023/12/07 08:50:16;;;;;;;78.38;21.92;;;;;;;;;;5024949;28;20076;-87
2023/12/07 08:52:44;;;;;;;75.72;20.67;;;;;;;;;;5034485;28;20033;-86
2023/12/07 08:55:22;;;;;;;52.72;19.80;;;;;;;;;;5052529;28;20486;-87
2023/12/07 08:57:48;;;;;;;63.40;19.83;;;;;;;;;;5035275;28;20124;-89
2023/12/07 09:00:15;;;;;;;80.32;21.95;;;;;;;;;;5052906;28;20033;-87
2023/12/07 09:02:42;;;;;;;57.40;20.20;;;;;;;;;;5053981;28;20171;-86
2023/12/07 09:05:14;;;;;;;60.33;21.42;;;;;;;;;;5057815;28;20033;-87
2023/12/07 09:07:41;;;;;;;72.38;20.70;;;;;;;;;;5063033;28;20053;-86
2023/12/07 09:10:08;;;;;;;88.25;22.08;;;;;;;;;;5061299;28;20063;-87
2023/12/07 09:12:36;;;;;;;63.25;21.50;;;;;;;;;;5035978;28;20384;-87
2023/12/07 09:15:07;;;;;;;67.63;20.45;;;;;;;;;;5051903;28;20048;-87
2023/12/07 09:17:34;;;;;;;74.35;22.05;;;;;;;;;;5051786;28;20135;-87
2023/12/07 09:20:01;;;;;;;41.70;19.88;;;;;;;;;;5017216;28;20037;-87
2023/12/07 09:22:28;;;;;;;54.67;21.70;;;;;;;;;;5034812;28;20086;-87
2023/12/07 09:25:03;;;;;;;69.88;22.52;;;;;;;;;;5034686;28;20540;-87
2023/12/07 09:27:32;;;;;;;87.90;22.95;;;;;;;;;;5035413;28;20037;-86
2023/12/07 09:30:00;;;;;;;68.93;22.50;;;;;;;;;;5034126;28;20491;-87
2023/12/07 09:32:28;;;;;;;82.63;22.63;;;;;;;;;;5034480;28;20480;-89
2023/12/07 09:35:03;;;;;;;66.85;23.48;;;;;;;;;;5035818;28;20548;-87
2023/12/07 09:37:30;;;;;;;78.47;24.08;;;;;;;;;;5051921;28;20031;-87
2023/12/07 09:39:57;;;;;;;81.22;23.88;;;;;;;;;;5051978;28;20033;-87
2023/12/07 09:42:24;;;;;;;57.30;21.05;;;;;;;;;;5053012;28;20391;-87
2023/12/07 09:44:57;;;;;;;93.75;24.35;;;;;;;;;;5048292;28;20514;-87
2023/12/07 09:47:26;;;;;;;86.20;23.25;;;;;;;;;;5051044;28;20116;-87
2023/12/07 09:50:02;;;;;;;103.22;27.05;;;;;;;;;;5032734;28;20040;-87
2023/12/07 09:52:29;;;;;;;63.47;23.63;;;;;;;;;;5033594;28;20483;-89
2023/12/07 09:54:56;;;;;;;121.50;26.95;;;;;;;;;;5032276;28;20078;-87
2023/12/07 09:57:23;;;;;;;98.95;25.98;;;;;;;;;;5033684;28;20029;-87
2023/12/07 09:59:55;;;;;;;69.35;23.38;;;;;;;;;;5031676;28;20055;-87
2023/12/07 10:02:22;;;;;;;73.22;23.95;;;;;;;;;;5032586;28;20372;-86
2023/12/07 10:05:04;;;;;;;93.97;24.00;;;;;;;;;;5050770;28;20112;-87
2023/12/07 10:07:37;;;;;;;89.22;26.65;;;;;;;;;;5051108;28;20048;-87
2023/12/07 10:10:04;;;;;;;96.72;26.40;;;;;;;;;;5050269;28;20120;-88
2023/12/07 10:12:33;;;;;;;63.70;26.30;;;;;;;;;;5013867;28;20139;-87
2023/12/07 10:15:03;;;;;;;95.82;25.30;;;;;;;;;;5050173;28;20041;-87
2023/12/07 10:17:43;;;;;;;101.35;26.88;;;;;;;;;;5014330;28;20033;-87
2023/12/07 10:20:11;;;;;;;81.03;25.00;;;;;;;;;;5032730;28;20045;-87
2023/12/07 10:22:39;;;;;;;67.90;27.05;;;;;;;;;;5050899;28;20040;-87
2023/12/07 10:25:06;;;;;;;81.97;24.88;;;;;;;;;;5049811;28;20048;-86
2023/12/07 10:27:35;;;;;;;90.65;24.50;;;;;;;;;;5051605;28;20025;-86
2023/12/07 10:30:01;;;;;;;73.88;25.27;;;;;;;;;;5045356;28;20404;-87
2023/12/07 10:32:28;;;;;;;74.10;23.10;;;;;;;;;;5030867;28;20048;-86
2023/12/07 10:34:58;;;;;;;83.85;26.92;;;;;;;;;;5050209;28;20025;-86
2023/12/07 10:37:25;;;;;;;69.80;25.10;;;;;;;;;;5032313;28;20136;-86
2023/12/07 10:39:53;;;;;;;57.70;24.63;;;;;;;;;;5051259;28;20044;-87
2023/12/07 10:42:22;;;;;;;86.63;25.42;;;;;;;;;;5051430;28;20041;-87
2023/12/07 10:44:50;;;;;;;104.90;25.08;;;;;;;;;;5050443;28;20602;-86
2023/12/07 10:47:18;;;;;;;56.58;22.10;;;;;;;;;;5050561;28;20044;-86
2023/12/07 10:49:46;;;;;;;67.72;24.13;;;;;;;;;;5050669;28;20375;-86
2023/12/07 10:52:15;;;;;;;98.60;25.55;;;;;;;;;;5047702;28;20464;-87
2023/12/07 10:54:51;;;;;;;69.30;27.42;;;;;;;;;;5048049;28;20052;-86
2023/12/07 10:57:23;;;;;;;77.13;27.73;;;;;;;;;;5051239;28;20379;-87
2023/12/07 10:59:56;;;;;;;;;;;;;;;;;;5034236;28;20037;-86
2023/12/07 11:02:22;;;;;;;62.58;23.50;;;;;;;;;;5049978;28;19924;-86
2023/12/07 11:04:50;;;;;;;93.05;27.92;;;;;;;;;;5046150;28;20087;-87
2023/12/07 11:07:20;;;;;;;79.10;27.02;;;;;;;;;;5048896;28;20428;-87
2023/12/07 11:10:02;;;;;;;78.40;26.75;;;;;;;;;;5054491;28;20041;-86
2023/12/07 11:12:45;;;;;;;59.60;24.38;;;;;;;;;;5055544;28;20430;-86
2023/12/07 11:15:12;;;;;;;135.40;28.85;;;;;;;;;;5023016;28;20118;-87
2023/12/07 11:17:53;;;;;;;52.42;22.67;;;;;;;;;;5007586;28;20049;-86
2023/12/07 11:20:21;;;;;;;162.35;31.92;;;;;;;;;;5038986;28;20037;-86
2023/12/07 11:22:48;;;;;;;186.60;35.03;;;;;;;;;;5041402;28;20128;-85
2023/12/07 11:25:15;;;;;;;101.20;30.15;;;;;;;;;;5047600;28;20040;-86
2023/12/07 11:27:46;;;;;;;76.70;28.13;;;;;;;;;;5054856;28;20570;-86
2023/12/07 11:30:14;;;;;;;75.68;26.42;;;;;;;;;;5053683;28;20033;-86
2023/12/07 11:32:42;;;;;;;602.95;75.05;;;;;;;;;;5037048;28;20639;-89
2023/12/07 11:35:11;;;;;;;701.47;83.60;;;;;;;;;;4979093;28;20063;-90
2023/12/07 11:37:57;;;;;;;94.78;28.42;;;;;;;;;;5013621;28;20119;-90
2023/12/07 11:40:24;;;;;;;220.57;35.63;;;;;;;;;;4999983;28;20055;-90
2023/12/07 11:42:52;;;;;;;479.42;59.83;;;;;;;;;;5016434;28;20041;-89
2023/12/07 11:45:37;;;;;;;709.97;83.20;;;;;;;;;;4972077;28;20045;-91
2023/12/07 11:48:05;;;;;;;827.00;96.82;;;;;;;;;;4971191;28;20044;-89
2023/12/07 11:50:32;;;;;;;626.10;74.50;;;;;;;;;;5002960;28;20048;-90
2023/12/07 11:52:59;;;;;;;53.17;23.25;;;;;;;;;;5006763;28;20044;-85
2023/12/07 11:55:25;;;;;;;211.18;34.65;;;;;;;;;;5044183;28;20037;-88
2023/12/07 11:57:53;;;;;;;145.43;29.13;;;;;;;;;;5005268;28;20044;-89
2023/12/07 12:00:20;;;;;;;616.33;74.38;;;;;;;;;;5024250;28;20099;-89
2023/12/07 12:02:47;;;;;;;352.00;44.85;;;;;;;;;;4966931;28;20058;-92
2023/12/07 12:05:14;;;;;;;87.03;25.00;;;;;;;;;;4994532;28;20037;-88
2023/12/07 12:07:41;;;;;;;380.50;48.35;;;;;;;;;;4987281;28;20045;-87
2023/12/07 12:10:08;;;;;;;667.40;77.40;;;;;;;;;;4962750;28;21130;-91
2023/12/07 12:12:35;;;;;;;645.75;75.00;;;;;;;;;;4960950;28;20056;-90
2023/12/07 12:15:01;;;;;;;288.20;42.47;;;;;;;;;;4977188;28;20611;-88
2023/12/07 12:17:28;;;;;;;341.60;45.60;;;;;;;;;;5005080;28;20042;-90
2023/12/07 12:19:54;;;;;;;152.25;30.90;;;;;;;;;;5015211;28;20045;-89
2023/12/07 12:22:21;;;;;;;119.28;26.25;;;;;;;;;;5021075;28;20582;-90
2023/12/07 12:24:48;;;;;;;119.22;26.42;;;;;;;;;;5022452;28;20037;-90
2023/12/07 12:27:16;;;;;;;304.45;43.95;;;;;;;;;;5023503;28;20539;-90
2023/12/07 12:29:42;;;;;;;75.40;24.70;;;;;;;;;;4987897;28;20033;-89
2023/12/07 12:32:09;;;;;;;95.85;25.83;;;;;;;;;;5033311;28;20048;-89
2023/12/07 12:34:36;;;;;;;67.47;25.65;;;;;;;;;;5039944;28;20030;-90
2023/12/07 12:37:05;;;;;;;95.50;25.77;;;;;;;;;;5040736;28;20042;-90
2023/12/07 12:39:33;;;;;;;92.55;26.42;;;;;;;;;;5034818;28;20033;-90
2023/12/07 12:42:02;;;;;;;185.88;32.10;;;;;;;;;;5025083;28;20112;-88
2023/12/07 12:44:33;;;;;;;429.23;55.53;;;;;;;;;;4949244;28;20045;-87
2023/12/07 12:47:08;;;;;;;924.53;104.82;;;;;;;;;;4934245;28;20041;-86
2023/12/07 12:49:37;;;;;;;845.60;95.60;;;;;;;;;;4941781;28;20223;-89
2023/12/07 12:52:04;;;;;;;916.28;106.45;;;;;;;;;;4949137;28;20038;-85
2023/12/07 12:54:35;;;;;;;316.77;42.42;;;;;;;;;;4948176;28;20072;-89
2023/12/07 12:57:02;;;;;;;167.70;30.58;;;;;;;;;;5006946;28;20053;-88
2023/12/07 12:59:29;;;;;;;156.88;31.13;;;;;;;;;;5020294;28;20128;-91
2023/12/07 13:01:56;;;;;;;362.08;48.65;;;;;;;;;;5005258;28;20102;-92
2023/12/07 13:04:23;;;;;;;112.35;27.77;;;;;;;;;;5006963;28;20044;-90
2023/12/07 13:06:51;;;;;;;480.33;52.78;;;;;;;;;;4972458;28;20063;-90
2023/12/07 13:09:20;;;;;;;687.78;79.68;;;;;;;;;;4976618;28;20083;-87
2023/12/07 13:11:47;;;;;;;843.05;99.50;;;;;;;;;;4964399;28;20041;-89
2023/12/07 13:14:13;;;;;;;568.80;67.97;;;;;;;;;;4956390;28;20218;-91
2023/12/07 13:16:40;;;;;;;921.50;107.15;;;;;;;;;;4954447;28;20475;-88
2023/12/07 13:19:07;;;;;;;581.35;68.60;;;;;;;;;;4973732;28;20067;-88
2023/12/07 13:21:34;;;;;;;651.58;74.97;;;;;;;;;;4974690;28;20041;-89
2023/12/07 13:24:04;;;;;;;806.38;91.68;;;;;;;;;;4951897;28;20126;-88
2023/12/07 13:26:31;;;;;;;481.75;55.17;;;;;;;;;;4975109;28;20044;-91
2023/12/07 13:28:57;;;;;;;518.28;56.88;;;;;;;;;;4977309;28;20661;-90
2023/12/07 13:31:24;;;;;;;76.65;26.27;;;;;;;;;;4993517;28;20063;-89
2023/12/07 13:33:51;;;;;;;783.08;91.72;;;;;;;;;;4976987;28;20143;-87
2023/12/07 13:36:25;;;;;;;857.85;101.10;;;;;;;;;;4954342;28;21324;-87
2023/12/07 13:38:52;;;;;;;167.75;36.15;;;;;;;;;;4994172;28;20040;-86
2023/12/07 13:41:19;;;;;;;694.45;82.57;;;;;;;;;;4972810;28;20418;-88
2023/12/07 13:43:48;;;;;;;680.83;79.03;;;;;;;;;;4983079;28;20037;-88
2023/12/07 13:46:16;;;;;;;540.13;64.32;;;;;;;;;;4965987;28;20040;-88
2023/12/07 13:48:43;;;;;;;567.30;65.93;;;;;;;;;;4990908;28;20040;-90
2023/12/07 13:51:10;;;;;;;407.42;52.08;;;;;;;;;;5009070;28;20048;-91
2023/12/07 13:53:37;;;;;;;587.67;68.47;;;;;;;;;;5012998;28;20551;-89
2023/12/07 13:56:05;;;;;;;607.08;72.50;;;;;;;;;;4975873;28;20918;-90
2023/12/07 13:58:32;;;;;;;593.58;71.00;;;;;;;;;;4977893;28;20854;-89
2023/12/07 14:00:58;;;;;;;701.70;83.07;;;;;;;;;;4967800;28;20033;-89
2023/12/07 14:03:25;;;;;;;599.88;70.00;;;;;;;;;;4980864;28;20060;-90
2023/12/07 14:05:52;;;;;;;481.10;61.75;;;;;;;;;;4963185;28;20041;-91
2023/12/07 14:08:19;;;;;;;87.10;27.58;;;;;;;;;;5021765;28;20492;-88
2023/12/07 14:10:45;;;;;;;167.15;37.15;;;;;;;;;;5034204;28;20044;-89